Kimble County Airport
KJCT : rendu visible

Aérodrome :











RETROUVEZ-NOUS SUR...

 
LOGIN :

S'inscrire | Disclaimer

   EN    FR    IT 

 









Légende :    VFR   VFR Marginal   IFR   IFR Intensif   IFR Très Intensif
Visi : 
Plafond : 
>= 8 km
>= 3000ft
5 à 8 km
1000 à 3000 ft
1500m à 5 km
500 à 1000 ft
800 à 1500m
200 à 500 ft
< 800m
< 200 ft
Symboles :   Orages  Brouillard  Fortes neiges  Fortes précipitations  Vent > 20 kt






- Altitude de l'aérodrome : 1749 ft


KJCT - Kimble County

DERNIER METAR :
  • 260251Z AUTO 00000KT 10SM SCT110 21/19 A2991 RMK AO2 LTG DSNT SW SLP099 T02110189 53020

METARs EXPIRÉS :
  • 260151Z AUTO 07005KT 10SM FEW070 22/19 A2988 RMK AO2 LTG DSNT S AND SW SLP086 T02170189
  • 260051Z AUTO 06007KT 10SM CLR 22/18 A2985 RMK AO2 SLP079 T02220178

TAF KJCT
Valide du 26 à 00h jusqu'au 27 à 00h UTC


252332Z 2600/2624 06007KT P6SM SCT035 OVC050
FM260300 06006KT P6SM VCSH BKN040
FM261400 01007KT P6SM SCT050 SCT250
FIR KZHU / Amérique du Nord



MET'MAP, la Météo Aéronautique d'un coup d'oeil ! - Copyright ORBIFLY Décembre 2007 - Disclaimer

ORBIFLY MET'MAP TEAM :

Programmation & Développement : Alexandra Zaïnal
Sur une idée originale de : Baudouin d'Aumeries
Assistance à la programmation : Marc-Olivier Méhu
Soutien technique & logistique : Manuel Goepfert

Contact : metmap@orbifly.com




SOURCES & CREDITS :

   NOAA       Earth
Advisory